createdAt,value
2018-06-18T00:01:48.587Z,101501.47
2018-06-18T00:04:14.564Z,101498.98
2018-06-18T00:06:40.538Z,101512.08
2018-06-18T00:09:06.511Z,101504.75
2018-06-18T00:11:32.683Z,101493.23
2018-06-18T00:13:58.669Z,101499.17
2018-06-18T00:16:24.625Z,101499.87
2018-06-18T00:18:50.619Z,101504.13
2018-06-18T00:21:16.672Z,101506.38
2018-06-18T00:23:42.644Z,101509.40
2018-06-18T00:26:08.620Z,101516.42
2018-06-18T00:28:34.593Z,101513.52
2018-06-18T00:31:00.638Z,101508.55
2018-06-18T00:33:26.662Z,101507.52
2018-06-18T00:35:54.747Z,101498.13
2018-06-18T00:38:20.727Z,101490.72
2018-06-18T00:40:46.736Z,101489.31
2018-06-18T00:43:12.715Z,101491.49
2018-06-18T00:45:38.699Z,101487.52
2018-06-18T00:48:04.700Z,101485.22
2018-06-18T00:50:30.630Z,101486.36
2018-06-18T00:52:56.612Z,101489.20
2018-06-18T00:55:22.578Z,101490.30
2018-06-18T00:57:48.575Z,101489.84
2018-06-18T01:00:14.573Z,101487.79
2018-06-18T01:02:40.531Z,101487.48
2018-06-18T01:05:06.504Z,101483.84
2018-06-18T01:07:32.468Z,101486.36
2018-06-18T01:10:00.475Z,101485.80
2018-06-18T01:12:26.471Z,101481.30
2018-06-18T01:14:52.456Z,101464.06
2018-06-18T01:17:18.471Z,101466.05
2018-06-18T01:19:44.460Z,101454.22
2018-06-18T01:22:10.438Z,101456.63
2018-06-18T01:24:36.444Z,101463.86
2018-06-18T01:27:02.448Z,101474.36
2018-06-18T01:29:28.450Z,101481.58
2018-06-18T01:31:54.437Z,101477.34
2018-06-18T01:34:20.428Z,101475.80
2018-06-18T01:36:46.414Z,101478.16
2018-06-18T01:39:12.422Z,101472.98
2018-06-18T01:41:38.377Z,101475.64
2018-06-18T01:44:04.334Z,101476.08
2018-06-18T01:46:30.301Z,101475.33
2018-06-18T01:48:56.314Z,101469.95
2018-06-18T01:51:22.299Z,101475.88
2018-06-18T01:53:48.280Z,101475.80
2018-06-18T01:56:14.268Z,101474.12
2018-06-18T01:58:40.254Z,101469.25
2018-06-18T02:01:06.228Z,101467.29
2018-06-18T02:03:32.204Z,101479.55
2018-06-18T02:05:58.179Z,101475.66
2018-06-18T02:08:24.171Z,101473.92
2018-06-18T02:10:50.172Z,101466.35
2018-06-18T02:13:16.154Z,101474.75
2018-06-18T02:15:42.141Z,101470.97
2018-06-18T02:18:08.125Z,101474.39
2018-06-18T02:20:34.100Z,101468.25
2018-06-18T02:23:00.136Z,101463.33
2018-06-18T02:25:26.138Z,101462.87
2018-06-18T02:27:52.123Z,101470.14
2018-06-18T02:30:18.102Z,101461.55
2018-06-18T02:32:44.071Z,101465.27
2018-06-18T02:35:10.069Z,101450.69
2018-06-18T02:37:36.064Z,101448.23
2018-06-18T02:40:02.061Z,101453.14
2018-06-18T02:42:28.099Z,101456.80
2018-06-18T02:44:54.067Z,101458.13
2018-06-18T02:47:20.039Z,101451.63
2018-06-18T02:49:45.985Z,101455.99
2018-06-18T02:52:11.977Z,101457.30
2018-06-18T02:54:37.960Z,101457.92
2018-06-18T02:57:03.923Z,101470.63
2018-06-18T02:59:29.899Z,101463.92
2018-06-18T03:01:55.871Z,101450.94
2018-06-18T03:04:21.831Z,101456.04
2018-06-18T03:06:47.832Z,101455.61
2018-06-18T03:09:13.860Z,101452.26
2018-06-18T03:11:39.847Z,101469.80
2018-06-18T03:14:05.838Z,101467.21
2018-06-18T03:16:31.895Z,101469.95
2018-06-18T03:18:57.855Z,101470.88
2018-06-18T03:21:23.826Z,101459.95
2018-06-18T03:23:49.808Z,101470.38
2018-06-18T03:26:15.776Z,101467.23
2018-06-18T03:28:41.776Z,101474.73
2018-06-18T03:31:07.783Z,101478.64
2018-06-18T03:33:33.767Z,101480.30
2018-06-18T03:35:59.747Z,101475.80
2018-06-18T03:38:25.700Z,101473.98
2018-06-18T03:40:51.709Z,101472.02
2018-06-18T03:43:17.769Z,101467.53
2018-06-18T03:45:43.743Z,101470.33
2018-06-18T03:48:09.704Z,101472.87
2018-06-18T03:50:35.713Z,101477.84
2018-06-18T03:53:01.701Z,101473.37
2018-06-18T03:55:27.834Z,101476.13
2018-06-18T03:57:53.816Z,101472.29
2018-06-18T04:00:19.788Z,101471.47
2018-06-18T04:02:45.775Z,101476.58
2018-06-18T04:05:11.889Z,101481.69
2018-06-18T04:07:37.840Z,101473.23
2018-06-18T04:10:03.845Z,101480.55
2018-06-18T04:12:29.919Z,101487.19
2018-06-18T04:14:55.921Z,101489.31
2018-06-18T04:17:21.916Z,101488.13
2018-06-18T04:19:47.996Z,101489.06
2018-06-18T04:22:13.974Z,101483.40
2018-06-18T04:24:39.982Z,101486.16
2018-06-18T04:27:05.944Z,101482.48
2018-06-18T04:29:31.984Z,101487.52
2018-06-18T04:31:57.979Z,101486.88
2018-06-18T04:34:23.964Z,101488.32
2018-06-18T04:36:49.969Z,101485.28
2018-06-18T04:39:15.952Z,101490.78
2018-06-18T04:41:41.914Z,101485.91
2018-06-18T04:44:07.942Z,101490.34
2018-06-18T04:46:33.921Z,101494.64
2018-06-18T04:48:59.900Z,101500.11
2018-06-18T04:51:25.884Z,101490.97
2018-06-18T04:53:51.866Z,101491.22
2018-06-18T04:56:17.830Z,101489.78
2018-06-18T04:58:43.796Z,101486.69
2018-06-18T05:01:09.778Z,101491.97
2018-06-18T05:03:35.761Z,101491.47
2018-06-18T05:06:01.772Z,101496.52
2018-06-18T05:08:27.777Z,101497.59
2018-06-18T05:10:53.768Z,101494.31
2018-06-18T05:13:19.730Z,101490.27
2018-06-18T05:15:45.846Z,101494.14
2018-06-18T05:18:11.812Z,101493.18
2018-06-18T05:20:37.838Z,101498.68
2018-06-18T05:23:03.757Z,101500.70
2018-06-18T05:25:29.712Z,101502.35
2018-06-18T05:27:55.694Z,101504.86
2018-06-18T05:30:21.675Z,101509.92
2018-06-18T05:32:47.664Z,101505.20
2018-06-18T05:35:13.651Z,101498.04
2018-06-18T05:37:39.623Z,101502.66
2018-06-18T05:40:05.629Z,101506.45
2018-06-18T05:42:31.632Z,101505.81
2018-06-18T05:44:57.596Z,101504.73
2018-06-18T05:47:23.576Z,101503.51
2018-06-18T05:49:49.639Z,101500.55
2018-06-18T05:52:15.674Z,101505.30
2018-06-18T05:54:41.683Z,101508.45
2018-06-18T05:57:07.732Z,101512.30
2018-06-18T05:59:33.725Z,101514.02
2018-06-18T06:01:59.781Z,101514.70
2018-06-18T06:04:25.758Z,101511.36
2018-06-18T06:06:51.738Z,101509.64
2018-06-18T06:09:17.700Z,101509.16
2018-06-18T06:11:43.669Z,101507.27
2018-06-18T06:14:09.639Z,101509.09
2018-06-18T06:16:35.612Z,101516.36
2018-06-18T06:19:01.631Z,101513.84
2018-06-18T06:21:27.662Z,101514.48
2018-06-18T06:23:53.644Z,101508.73
2018-06-18T06:26:19.650Z,101504.70
2018-06-18T06:28:45.666Z,101508.55
2018-06-18T06:31:11.705Z,101507.08
2018-06-18T06:33:37.664Z,101508.59
2018-06-18T06:36:03.648Z,101505.25
2018-06-18T06:38:29.603Z,101520.03
2018-06-18T06:40:55.576Z,101523.08
2018-06-18T06:43:21.542Z,101519.66
2018-06-18T06:45:47.514Z,101518.24
2018-06-18T06:48:13.483Z,101519.91
2018-06-18T06:50:39.468Z,101520.92
2018-06-18T06:53:05.427Z,101522.47
2018-06-18T06:55:31.439Z,101528.92
2018-06-18T06:57:57.396Z,101531.55
2018-06-18T07:00:23.416Z,101530.25
2018-06-18T07:02:49.403Z,101541.42
2018-06-18T07:05:15.415Z,101540.53
2018-06-18T07:07:41.446Z,101539.73
2018-06-18T07:10:07.413Z,101543.69
2018-06-18T07:12:33.373Z,101544.02
2018-06-18T07:14:59.345Z,101546.47
2018-06-18T07:17:25.324Z,101542.95
2018-06-18T07:19:51.305Z,101547.49
2018-06-18T07:22:17.313Z,101542.82
2018-06-18T07:24:43.332Z,101547.99
2018-06-18T07:27:09.298Z,101539.59
2018-06-18T07:29:35.265Z,101543.36
2018-06-18T07:32:01.261Z,101538.21
2018-06-18T07:34:27.223Z,101540.86
2018-06-18T07:36:53.209Z,101542.58
2018-06-18T07:39:19.187Z,101546.14
2018-06-18T07:41:45.175Z,101545.20
2018-06-18T07:44:11.148Z,101549.13
2018-06-18T07:46:37.132Z,101553.80
2018-06-18T07:49:03.114Z,101562.72
2018-06-18T07:51:29.114Z,101567.39
2018-06-18T07:53:55.178Z,101564.93
2018-06-18T07:56:21.204Z,101561.45
2018-06-18T07:58:47.199Z,101559.39
2018-06-18T08:01:13.175Z,101554.09
2018-06-18T08:03:39.191Z,101549.22
2018-06-18T08:06:05.226Z,101540.03
2018-06-18T08:08:31.208Z,101542.36
2018-06-18T08:10:57.187Z,101536.36
2018-06-18T08:13:23.150Z,101537.25
2018-06-18T08:15:49.113Z,101532.41
2018-06-18T08:18:15.096Z,101535.23
2018-06-18T08:20:41.090Z,101529.23
2018-06-18T08:23:07.079Z,101539.54
2018-06-18T08:25:33.086Z,101545.23
2018-06-18T08:27:59.052Z,101537.88
2018-06-18T08:30:26.061Z,101542.82
2018-06-18T08:32:52.029Z,101549.91
2018-06-18T08:35:18.006Z,101546.56
2018-06-18T08:37:44.024Z,101554.47
2018-06-18T08:40:10.001Z,101560.41
2018-06-18T08:42:35.989Z,101554.25
2018-06-18T08:45:01.960Z,101552.56
2018-06-18T08:47:27.938Z,101556.63
2018-06-18T08:49:53.909Z,101553.58
2018-06-18T08:52:21.134Z,101552.91
2018-06-18T08:54:47.117Z,101553.90
2018-06-18T08:57:13.094Z,101546.83
2018-06-18T08:59:39.062Z,101548.67
2018-06-18T09:02:05.053Z,101549.50
2018-06-18T09:04:31.043Z,101548.23
2018-06-18T09:06:57.076Z,101548.09
2018-06-18T09:09:23.117Z,101544.94
2018-06-18T09:11:49.082Z,101547.27
2018-06-18T09:14:15.065Z,101543.48
2018-06-18T09:16:40.984Z,101543.72
2018-06-18T09:19:06.987Z,101542.27
2018-06-18T09:21:32.944Z,101537.67
2018-06-18T09:23:58.947Z,101542.28
2018-06-18T09:26:24.936Z,101543.98
2018-06-18T09:28:50.914Z,101546.08
2018-06-18T09:31:16.890Z,101543.59
2018-06-18T09:33:42.859Z,101546.38
2018-06-18T09:36:08.853Z,101536.92
2018-06-18T09:38:34.827Z,101544.89
2018-06-18T09:41:00.836Z,101541.30
2018-06-18T09:43:26.826Z,101546.60
2018-06-18T09:45:52.795Z,101545.91
2018-06-18T09:48:18.772Z,101539.39
2018-06-18T09:50:44.729Z,101536.73
2018-06-18T09:53:10.749Z,101534.72
2018-06-18T09:55:36.769Z,101532.87
2018-06-18T09:58:02.768Z,101530.52
2018-06-18T10:00:28.730Z,101538.11
2018-06-18T10:02:54.712Z,101535.02
2018-06-18T10:05:20.684Z,101525.21
2018-06-18T10:07:46.696Z,101530.02
2018-06-18T10:10:12.650Z,101532.37
2018-06-18T10:12:38.647Z,101529.47
2018-06-18T10:15:04.614Z,101523.27
2018-06-18T10:17:30.572Z,101524.08
2018-06-18T10:19:56.522Z,101519.93
2018-06-18T10:22:22.465Z,101525.88
2018-06-18T10:24:48.427Z,101526.67
2018-06-18T10:27:14.400Z,101523.19
2018-06-18T10:29:40.383Z,101528.89
2018-06-18T10:32:06.397Z,101528.55
2018-06-18T10:34:32.378Z,101522.61
2018-06-18T10:36:58.378Z,101521.75
2018-06-18T10:39:24.346Z,101516.00
2018-06-18T10:41:50.312Z,101514.84
2018-06-18T10:44:16.319Z,101520.23
2018-06-18T10:46:42.267Z,101519.48
2018-06-18T10:49:08.262Z,101514.66
2018-06-18T10:51:34.273Z,101517.38
2018-06-18T10:54:00.237Z,101514.59
2018-06-18T10:56:26.214Z,101518.08
2018-06-18T10:58:52.188Z,101514.67
2018-06-18T11:01:18.173Z,101515.44
2018-06-18T11:03:44.161Z,101520.81
2018-06-18T11:06:10.152Z,101524.02
2018-06-18T11:08:36.148Z,101522.45
2018-06-18T11:11:02.181Z,101513.98
2018-06-18T11:13:28.179Z,101518.14
2018-06-18T11:15:54.233Z,101518.96
2018-06-18T11:18:20.184Z,101523.77
2018-06-18T11:20:46.163Z,101525.07
2018-06-18T11:23:12.171Z,101530.90
2018-06-18T11:25:38.163Z,101521.99
2018-06-18T11:28:04.150Z,101523.94
2018-06-18T11:30:30.171Z,101524.70
2018-06-18T11:32:56.140Z,101525.73
2018-06-18T11:35:22.144Z,101521.86
2018-06-18T11:37:48.135Z,101520.42
2018-06-18T11:40:14.129Z,101525.31
2018-06-18T11:42:40.125Z,101530.31
2018-06-18T11:45:06.085Z,101531.97
2018-06-18T11:47:32.184Z,101535.52
2018-06-18T11:49:58.162Z,101526.98
2018-06-18T11:52:24.140Z,101528.63
2018-06-18T11:54:50.094Z,101528.14
2018-06-18T11:57:16.064Z,101526.42
2018-06-18T11:59:42.054Z,101531.40
2018-06-18T12:02:08.038Z,101526.84
2018-06-18T12:04:34.004Z,101530.77
2018-06-18T12:07:00.153Z,101526.37
2018-06-18T12:09:26.129Z,101529.83
2018-06-18T12:11:52.120Z,101532.72
2018-06-18T12:14:18.110Z,101529.77
2018-06-18T12:16:44.095Z,101528.77
2018-06-18T12:19:10.077Z,101532.23
2018-06-18T12:21:36.036Z,101531.92
2018-06-18T12:24:02.020Z,101535.68
2018-06-18T12:26:27.978Z,101539.48
2018-06-18T12:28:53.994Z,101546.23
2018-06-18T12:31:19.940Z,101542.14
2018-06-18T12:33:45.940Z,101541.95
2018-06-18T12:36:11.906Z,101535.26
2018-06-18T12:38:37.871Z,101536.34
2018-06-18T12:41:03.914Z,101550.16
2018-06-18T12:43:29.838Z,101554.97
2018-06-18T12:45:55.831Z,101548.59
2018-06-18T12:48:21.807Z,101544.86
2018-06-18T12:50:47.788Z,101546.52
2018-06-18T12:53:13.953Z,101538.94
2018-06-18T12:55:39.854Z,101538.55
2018-06-18T12:58:05.816Z,101541.46
2018-06-18T13:00:31.763Z,101534.83
2018-06-18T13:02:57.728Z,101531.17
2018-06-18T13:05:23.686Z,101535.70
2018-06-18T13:07:49.700Z,101531.16
2018-06-18T13:10:15.724Z,101536.45
2018-06-18T13:12:41.645Z,101535.46
2018-06-18T13:15:07.616Z,101537.98
2018-06-18T13:17:33.594Z,101537.81
2018-06-18T13:19:59.620Z,101540.24
2018-06-18T13:22:25.611Z,101535.52
2018-06-18T13:24:51.580Z,101534.91
2018-06-18T13:27:17.589Z,101538.25
2018-06-18T13:29:43.520Z,101537.29
2018-06-18T13:32:09.590Z,101537.67
2018-06-18T13:34:35.580Z,101531.48
2018-06-18T13:37:01.575Z,101532.36
2018-06-18T13:39:27.558Z,101535.02
2018-06-18T13:41:53.539Z,101528.85
2018-06-18T13:44:19.512Z,101531.89
2018-06-18T13:46:45.532Z,101534.94
2018-06-18T13:49:11.518Z,101539.30
2018-06-18T13:51:37.501Z,101540.62
2018-06-18T13:54:03.486Z,101545.73
2018-06-18T13:56:29.475Z,101540.09
2018-06-18T13:58:55.448Z,101549.70
2018-06-18T14:01:21.461Z,101551.32
2018-06-18T14:03:47.441Z,101553.05
2018-06-18T14:06:13.418Z,101554.72
2018-06-18T14:08:39.410Z,101551.59
2018-06-18T14:11:05.364Z,101557.17
2018-06-18T14:13:31.369Z,101558.50
2018-06-18T14:15:57.333Z,101553.19
2018-06-18T14:18:23.362Z,101553.59
2018-06-18T14:20:49.326Z,101556.91
2018-06-18T14:23:15.285Z,101563.73
2018-06-18T14:25:41.351Z,101551.48
2018-06-18T14:28:07.323Z,101544.99
2018-06-18T14:30:33.350Z,101543.03
2018-06-18T14:32:59.334Z,101554.64
2018-06-18T14:35:25.308Z,101549.97
2018-06-18T14:37:51.308Z,101540.24
2018-06-18T14:40:17.300Z,101533.61
2018-06-18T14:42:43.346Z,101533.30
2018-06-18T14:45:09.316Z,101536.23
2018-06-18T14:47:35.324Z,101529.96
2018-06-18T14:50:01.287Z,101531.09
2018-06-18T14:52:27.376Z,101528.11
2018-06-18T14:54:53.285Z,101523.08
2018-06-18T14:57:19.364Z,101523.33
2018-06-18T14:59:45.394Z,101522.45
2018-06-18T15:02:11.416Z,101527.94
2018-06-18T15:04:37.554Z,101521.50
2018-06-18T15:07:03.642Z,101519.84
2018-06-18T15:09:29.802Z,101519.48
2018-06-18T15:11:55.597Z,101516.89
2018-06-18T15:14:21.912Z,101521.86
2018-06-18T15:16:48.113Z,101519.41
2018-06-18T15:19:14.157Z,101516.75
2018-06-18T15:21:40.082Z,101517.25
2018-06-18T15:24:06.043Z,101516.39
2018-06-18T15:26:32.052Z,101508.93
2018-06-18T15:28:58.012Z,101511.58
2018-06-18T15:31:24.016Z,101509.62
2018-06-18T15:33:49.979Z,101509.05
2018-06-18T15:36:15.972Z,101514.48
2018-06-18T15:38:41.928Z,101515.23
2018-06-18T15:41:07.889Z,101509.17
2018-06-18T15:43:33.861Z,101510.01
2018-06-18T15:45:59.879Z,101508.23
2018-06-18T15:48:25.852Z,101506.09
2018-06-18T15:50:51.862Z,101504.26
2018-06-18T15:53:17.809Z,101500.53
2018-06-18T15:55:43.788Z,101493.52
2018-06-18T15:58:09.924Z,101493.02
2018-06-18T16:00:35.881Z,101480.68
2018-06-18T16:03:01.897Z,101479.25
2018-06-18T16:05:27.875Z,101476.95
2018-06-18T16:07:53.862Z,101476.91
2018-06-18T16:10:19.858Z,101471.09
2018-06-18T16:12:45.899Z,101470.16
2018-06-18T16:15:11.896Z,101472.41
2018-06-18T16:17:37.884Z,101469.63
2018-06-18T16:20:03.888Z,101475.45
2018-06-18T16:22:30.025Z,101470.95
2018-06-18T16:24:56.045Z,101467.91
2018-06-18T16:27:21.980Z,101466.98
2018-06-18T16:29:47.949Z,101466.78
2018-06-18T16:32:13.925Z,101474.50
2018-06-18T16:34:39.936Z,101474.19
2018-06-18T16:37:05.918Z,101474.63
2018-06-18T16:39:31.891Z,101472.80
2018-06-18T16:41:57.851Z,101467.22
2018-06-18T16:44:23.841Z,101469.02
2018-06-18T16:46:49.833Z,101469.19
2018-06-18T16:49:15.811Z,101466.86
2018-06-18T16:51:41.821Z,101463.00
2018-06-18T16:54:07.803Z,101461.53
2018-06-18T16:56:33.812Z,101459.95
2018-06-18T16:58:59.761Z,101463.00
2018-06-18T17:01:25.767Z,101465.46
2018-06-18T17:03:51.731Z,101460.23
2018-06-18T17:06:17.726Z,101465.98
2018-06-18T17:08:43.807Z,101477.34
2018-06-18T17:11:09.800Z,101473.75
2018-06-18T17:13:35.774Z,101480.58
2018-06-18T17:16:01.746Z,101475.44
2018-06-18T17:18:27.745Z,101476.06
2018-06-18T17:20:53.727Z,101472.91
2018-06-18T17:23:19.786Z,101473.48
2018-06-18T17:25:45.726Z,101474.55
2018-06-18T17:28:11.739Z,101474.99
2018-06-18T17:30:37.740Z,101477.15
2018-06-18T17:33:03.834Z,101475.62
2018-06-18T17:35:29.805Z,101466.34
2018-06-18T17:37:55.814Z,101468.81
2018-06-18T17:40:21.757Z,101463.14
2018-06-18T17:42:47.748Z,101465.33
2018-06-18T17:45:13.775Z,101462.75
2018-06-18T17:47:39.753Z,101454.91
2018-06-18T17:50:05.764Z,101464.50
2018-06-18T17:52:31.731Z,101460.23
2018-06-18T17:54:57.790Z,101455.42
2018-06-18T17:57:23.779Z,101455.75
2018-06-18T17:59:49.773Z,101456.49
2018-06-18T18:02:15.770Z,101459.09
2018-06-18T18:04:41.756Z,101459.21
2018-06-18T18:07:07.755Z,101452.58
2018-06-18T18:09:33.732Z,101459.47
2018-06-18T18:11:59.703Z,101468.11
2018-06-18T18:14:25.692Z,101476.34
2018-06-18T18:16:51.716Z,101474.37
2018-06-18T18:19:17.701Z,101473.41
2018-06-18T18:21:43.716Z,101469.26
2018-06-18T18:24:09.808Z,101466.53
2018-06-18T18:26:35.835Z,101477.47
2018-06-18T18:29:01.861Z,101480.89
2018-06-18T18:31:27.828Z,101481.06
2018-06-18T18:33:53.818Z,101477.72
2018-06-18T18:36:19.810Z,101475.95
2018-06-18T18:38:45.899Z,101482.27
2018-06-18T18:41:11.907Z,101485.28
2018-06-18T18:43:37.911Z,101480.56
2018-06-18T18:46:03.884Z,101471.70
2018-06-18T18:48:29.863Z,101474.30
2018-06-18T18:50:55.834Z,101477.52
2018-06-18T18:53:21.804Z,101481.51
2018-06-18T18:55:47.808Z,101481.24
2018-06-18T18:58:13.796Z,101476.78
2018-06-18T19:00:39.781Z,101478.53
2018-06-18T19:03:05.928Z,101479.76
2018-06-18T19:05:31.956Z,101494.39
2018-06-18T19:07:57.919Z,101498.76
2018-06-18T19:10:23.953Z,101488.00
2018-06-18T19:12:49.936Z,101501.03
2018-06-18T19:15:15.935Z,101501.86
2018-06-18T19:17:41.907Z,101502.73
2018-06-18T19:20:07.896Z,101495.66
2018-06-18T19:22:33.862Z,101486.44
2018-06-18T19:24:59.849Z,101484.94
2018-06-18T19:27:25.822Z,101489.78
2018-06-18T19:29:51.797Z,101496.10
2018-06-18T19:32:17.871Z,101500.22
2018-06-18T19:34:43.942Z,101501.16
2018-06-18T19:37:09.925Z,101502.05
2018-06-18T19:39:35.884Z,101499.89
2018-06-18T19:42:01.914Z,101501.36
2018-06-18T19:44:28.144Z,101503.73
2018-06-18T19:46:54.104Z,101489.14
2018-06-18T19:49:20.079Z,101497.89
2018-06-18T19:51:46.135Z,101499.17
2018-06-18T19:54:12.173Z,101504.25
2018-06-18T19:56:38.140Z,101505.78
2018-06-18T19:59:04.230Z,101505.14
2018-06-18T20:01:30.256Z,101504.84
2018-06-18T20:03:56.259Z,101513.66
2018-06-18T20:06:22.314Z,101517.16
2018-06-18T20:08:48.267Z,101516.33
2018-06-18T20:11:14.260Z,101522.89
2018-06-18T20:13:40.224Z,101525.59
2018-06-18T20:16:06.212Z,101533.17
2018-06-18T20:18:32.201Z,101530.16
2018-06-18T20:20:58.160Z,101539.50
2018-06-18T20:23:24.220Z,101544.80
2018-06-18T20:25:50.202Z,101550.75
2018-06-18T20:28:16.208Z,101540.44
2018-06-18T20:30:42.175Z,101544.11
2018-06-18T20:33:08.246Z,101546.91
2018-06-18T20:35:34.234Z,101549.09
2018-06-18T20:38:00.231Z,101548.42
2018-06-18T20:40:26.213Z,101554.28
2018-06-18T20:42:52.179Z,101562.87
2018-06-18T20:45:18.155Z,101574.12
2018-06-18T20:47:44.131Z,101572.30
2018-06-18T20:50:10.128Z,101578.61
2018-06-18T20:52:36.096Z,101583.16
2018-06-18T20:55:02.133Z,101583.52
2018-06-18T20:57:28.135Z,101585.14
2018-06-18T20:59:54.141Z,101585.38
2018-06-18T21:02:20.147Z,101592.90
2018-06-18T21:04:46.156Z,101591.38
2018-06-18T21:07:12.138Z,101592.17
2018-06-18T21:09:38.149Z,101590.28
2018-06-18T21:12:04.121Z,101595.66
2018-06-18T21:14:30.095Z,101601.16
2018-06-18T21:16:56.048Z,101601.27
2018-06-18T21:19:22.029Z,101602.78
2018-06-18T21:21:47.990Z,101607.09
2018-06-18T21:24:13.982Z,101608.59
2018-06-18T21:26:39.971Z,101617.70
2018-06-18T21:29:05.922Z,101614.86
2018-06-18T21:31:31.906Z,101614.09
2018-06-18T21:33:57.899Z,101617.41
2018-06-18T21:36:23.870Z,101612.59
2018-06-18T21:38:49.861Z,101611.08
2018-06-18T21:41:15.834Z,101618.34
2018-06-18T21:43:41.825Z,101615.85
2018-06-18T21:46:07.808Z,101619.23
2018-06-18T21:48:33.774Z,101623.64
2018-06-18T21:50:59.782Z,101625.97
2018-06-18T21:53:25.768Z,101628.26
2018-06-18T21:55:51.770Z,101629.95
2018-06-18T21:58:17.742Z,101623.81
2018-06-18T22:00:43.813Z,101626.69
2018-06-18T22:03:09.733Z,101629.81
2018-06-18T22:05:35.797Z,101625.83
2018-06-18T22:08:01.752Z,101622.19
2018-06-18T22:10:27.735Z,101620.47
2018-06-18T22:12:53.730Z,101622.63
2018-06-18T22:15:19.701Z,101621.86
2018-06-18T22:17:45.688Z,101622.63
2018-06-18T22:20:11.883Z,101623.71
2018-06-18T22:22:37.849Z,101626.03
2018-06-18T22:25:03.874Z,101630.78
2018-06-18T22:27:29.838Z,101628.95
2018-06-18T22:29:55.822Z,101624.97
2018-06-18T22:32:21.814Z,101636.28
2018-06-18T22:34:47.793Z,101639.23
2018-06-18T22:37:13.768Z,101633.92
2018-06-18T22:39:39.798Z,101626.27
2018-06-18T22:42:05.775Z,101629.58
2018-06-18T22:44:31.717Z,101633.23
2018-06-18T22:46:57.671Z,101634.23
2018-06-18T22:49:23.694Z,101634.42
2018-06-18T22:51:49.741Z,101635.12
2018-06-18T22:54:15.715Z,101632.47
2018-06-18T22:56:41.697Z,101637.81
2018-06-18T22:59:07.677Z,101640.76
2018-06-18T23:01:33.640Z,101637.70
2018-06-18T23:03:59.593Z,101642.84
2018-06-18T23:06:25.571Z,101646.16
2018-06-18T23:08:51.545Z,101641.89
2018-06-18T23:11:17.513Z,101646.83
2018-06-18T23:13:43.483Z,101652.93
2018-06-18T23:16:09.435Z,101649.15
2018-06-18T23:18:35.396Z,101643.55
2018-06-18T23:21:01.379Z,101638.20
2018-06-18T23:23:27.353Z,101650.61
2018-06-18T23:25:53.293Z,101642.84
2018-06-18T23:28:19.269Z,101642.38
2018-06-18T23:30:45.243Z,101638.53
2018-06-18T23:33:11.207Z,101645.30
2018-06-18T23:35:37.191Z,101649.15
2018-06-18T23:38:03.161Z,101652.80
2018-06-18T23:40:29.155Z,101646.63
2018-06-18T23:42:55.123Z,101643.70
2018-06-18T23:45:21.116Z,101654.32
2018-06-18T23:47:47.093Z,101655.84
2018-06-18T23:50:13.083Z,101655.58
2018-06-18T23:52:39.065Z,101652.83
2018-06-18T23:55:05.174Z,101654.75
2018-06-18T23:57:31.141Z,101653.52
2018-06-18T23:59:57.091Z,101652.83
